Time;durP1;ratioP1;P1;durP2;ratioP2;P2;SDS_P1;SDS_P2;PMS_P1;PMS_P2;Temp;Humidity;BMP_temperature;BMP_pressure;BME280_temperature;BME280_humidity;BME280_pressure;Samples;Min_cycle;Max_cycle;Signal;HPM_P1;HPM_P2
2023/09/01 00:00:06;;;;;;;1.98;1.00;;;11.80;99.90;;;;;;5024689;28;20096;-62
2023/09/01 00:02:32;;;;;;;6.13;1.40;;;11.80;99.90;;;;;;5023652;28;20045;-62
2023/09/01 00:04:58;;;;;;;5.38;1.30;;;11.80;99.90;;;;;;5026439;28;20115;-63
2023/09/01 00:07:23;;;;;;;2.20;0.93;;;11.80;99.90;;;;;;5025413;28;20128;-63
2023/09/01 00:09:50;;;;;;;4.25;0.88;;;11.80;99.90;;;;;;5026598;28;20042;-63
2023/09/01 00:12:16;;;;;;;6.53;1.33;;;11.80;99.90;;;;;;5025241;28;20049;-63
2023/09/01 00:14:42;;;;;;;2.72;1.10;;;11.70;99.90;;;;;;5025560;28;20052;-63
2023/09/01 00:17:08;;;;;;;4.78;1.25;;;11.70;99.90;;;;;;5026387;28;20543;-63
2023/09/01 00:19:35;;;;;;;2.17;1.02;;;11.70;99.90;;;;;;5025328;28;20541;-63
2023/09/01 00:22:02;;;;;;;4.10;0.90;;;11.70;99.90;;;;;;5028598;28;20044;-63
2023/09/01 00:24:31;;;;;;;10.48;1.30;;;11.60;99.90;;;;;;5029126;28;20149;-63
2023/09/01 00:26:58;;;;;;;5.70;1.42;;;11.60;99.90;;;;;;5028578;28;20453;-63
2023/09/01 00:29:24;;;;;;;1.20;1.10;;;11.60;99.90;;;;;;5029138;28;20058;-63
2023/09/01 00:31:49;;;;;;;5.78;1.23;;;11.60;99.90;;;;;;5029406;28;20049;-63
2023/09/01 00:34:15;;;;;;;1.45;1.10;;;11.60;99.90;;;;;;5028513;28;20037;-63
2023/09/01 00:36:41;;;;;;;3.50;1.33;;;11.60;99.90;;;;;;5029396;28;20079;-63
2023/09/01 00:39:08;;;;;;;5.07;1.80;;;11.60;99.90;;;;;;5028371;28;20450;-63
2023/09/01 00:41:36;;;;;;;2.30;0.95;;;11.60;99.90;;;;;;5028633;28;20107;-63
2023/09/01 00:44:05;;;;;;;9.73;1.30;;;11.50;99.90;;;;;;5029875;28;20041;-63
2023/09/01 00:46:32;;;;;;;7.13;1.10;;;11.50;99.90;;;;;;5028623;28;20080;-63
2023/09/01 00:48:58;;;;;;;2.28;1.23;;;11.40;99.90;;;;;;5011540;28;20548;-63
2023/09/01 00:51:25;;;;;;;2.22;1.25;;;11.40;99.90;;;;;;5029147;28;20073;-63
2023/09/01 00:53:51;;;;;;;5.55;1.83;;;11.30;99.90;;;;;;5028665;28;20101;-63
2023/09/01 00:56:18;;;;;;;1.48;1.17;;;11.30;99.90;;;;;;5028591;28;20390;-62
2023/09/01 00:58:44;;;;;;;5.20;1.20;;;11.30;99.90;;;;;;5028191;28;20042;-62
2023/09/01 01:01:10;;;;;;;1.85;1.30;;;11.30;99.90;;;;;;5029543;28;20037;-63
2023/09/01 01:03:36;;;;;;;7.03;1.38;;;11.30;99.90;;;;;;5010099;28;20111;-62
2023/09/01 01:06:18;;;;;;;9.02;1.20;;;11.30;99.90;;;;;;5028198;28;20049;-62
2023/09/01 01:09:08;;;;;;;2.95;1.10;;;11.30;99.90;;;;;;5028540;28;20514;-62
2023/09/01 01:11:52;;;;;;;7.47;1.10;;;11.30;99.90;;;;;;5028339;28;20395;-62
2023/09/01 01:14:23;;;;;;;5.25;1.13;;;11.30;99.90;;;;;;5029318;28;20454;-62
2023/09/01 01:16:51;;;;;;;5.03;1.20;;;11.20;99.90;;;;;;5028088;28;20044;-62
2023/09/01 01:19:41;;;;;;;5.68;1.15;;;11.20;99.90;;;;;;5011470;28;20057;-62
2023/09/01 01:22:07;;;;;;;2.17;1.15;;;11.10;99.90;;;;;;5029156;28;20128;-61
2023/09/01 01:24:34;;;;;;;2.90;1.20;;;11.10;99.90;;;;;;5026572;28;20049;-62
2023/09/01 01:27:00;;;;;;;3.88;1.30;;;11.10;99.90;;;;;;5029111;28;20048;-62
2023/09/01 01:29:26;;;;;;;1.77;1.20;;;11.10;99.90;;;;;;5025724;28;20041;-62
2023/09/01 01:31:54;;;;;;;2.03;0.85;;;11.00;99.90;;;;;;5028048;28;20513;-63
2023/09/01 01:34:50;;;;;;;6.60;1.08;;;11.00;99.90;;;;;;5028067;28;20041;-62
2023/09/01 01:37:32;;;;;;;7.53;1.42;;;10.90;99.90;;;;;;5026596;28;20057;-62
2023/09/01 01:40:05;;;;;;;1.05;0.95;;;10.90;99.90;;;;;;5028130;28;20087;-62
2023/09/01 01:42:32;;;;;;;1.60;1.00;;;10.90;99.90;;;;;;5027262;28;20037;-62
2023/09/01 01:45:00;;;;;;;3.22;1.52;;;10.90;99.90;;;;;;5028438;28;20053;-62
2023/09/01 01:47:26;;;;;;;1.30;1.10;;;10.90;99.90;;;;;;5027587;28;20049;-62
2023/09/01 01:49:52;;;;;;;2.90;0.98;;;10.90;99.90;;;;;;5028533;28;20045;-62
2023/09/01 01:52:18;;;;;;;5.30;1.40;;;10.90;99.90;;;;;;5026823;28;20506;-62
2023/09/01 01:54:43;;;;;;;5.35;1.10;;;10.90;99.90;;;;;;5025816;28;20399;-62
2023/09/01 01:57:14;;;;;;;3.38;1.10;;;10.90;99.90;;;;;;5028438;28;20087;-62
2023/09/01 01:59:40;;;;;;;1.52;1.00;;;10.80;99.90;;;;;;5025895;28;20049;-62
2023/09/01 02:02:06;;;;;;;6.05;1.27;;;10.80;99.90;;;;;;5026696;28;20068;-62
2023/09/01 02:04:32;;;;;;;7.93;2.33;;;10.80;99.90;;;;;;5027124;28;20057;-62
2023/09/01 02:06:59;;;;;;;3.80;1.40;;;10.80;99.90;;;;;;5027827;28;20491;-62
2023/09/01 02:09:26;;;;;;;6.47;1.38;;;10.80;99.90;;;;;;5027594;28;20038;-62
2023/09/01 02:11:52;;;;;;;5.80;1.40;;;10.80;99.90;;;;;;5027863;28;20037;-62
2023/09/01 02:14:19;;;;;;;2.35;1.02;;;10.80;99.90;;;;;;5027958;28;20132;-62
2023/09/01 02:16:44;;;;;;;2.10;1.17;;;10.80;99.90;;;;;;5026798;28;20048;-62
2023/09/01 02:19:11;;;;;;;3.00;1.30;;;10.90;99.90;;;;;;5027602;28;20408;-62
2023/09/01 02:21:37;;;;;;;1.45;1.10;;;10.90;99.90;;;;;;5026877;28;20435;-62
2023/09/01 02:24:05;;;;;;;2.85;1.48;;;10.90;99.90;;;;;;5028215;28;20045;-62
2023/09/01 02:26:31;;;;;;;3.05;1.27;;;10.80;99.90;;;;;;5025903;28;20061;-63
2023/09/01 02:28:58;;;;;;;6.03;1.33;;;10.90;99.90;;;;;;5027547;28;20060;-63
2023/09/01 02:31:24;;;;;;;1.63;1.50;;;10.90;99.90;;;;;;5027986;28;20044;-62
2023/09/01 02:33:50;;;;;;;3.38;1.50;;;10.80;99.90;;;;;;5026556;28;20507;-63
2023/09/01 02:36:24;;;;;;;4.63;1.33;;;10.80;99.90;;;;;;5027413;28;20051;-63
2023/09/01 02:38:51;;;;;;;3.70;1.90;;;10.70;99.90;;;;;;5026377;28;20353;-63
2023/09/01 02:41:16;;;;;;;6.03;1.60;;;10.70;99.90;;;;;;5027104;28;20594;-63
2023/09/01 02:43:44;;;;;;;2.90;1.42;;;10.70;99.90;;;;;;5026184;28;20049;-62
2023/09/01 02:46:10;;;;;;;4.30;1.70;;;10.70;99.90;;;;;;5026081;28;20068;-63
2023/09/01 02:48:38;;;;;;;5.50;1.27;;;10.70;99.90;;;;;;5027588;28;20167;-62
2023/09/01 02:51:06;;;;;;;6.38;2.10;;;10.60;99.90;;;;;;5026027;28;20048;-63
2023/09/01 02:53:33;;;;;;;2.03;1.17;;;10.60;99.90;;;;;;5027748;28;20048;-63
2023/09/01 02:55:59;;;;;;;2.42;1.50;;;10.50;99.90;;;;;;5026385;28;20052;-63
2023/09/01 02:58:25;;;;;;;3.90;1.30;;;10.50;99.90;;;;;;5027221;28;20469;-63
2023/09/01 03:00:51;;;;;;;4.40;1.65;;;10.50;99.90;;;;;;5026279;28;20432;-63
2023/09/01 03:03:20;;;;;;;12.00;1.60;;;10.40;99.90;;;;;;5027144;28;20060;-63
2023/09/01 03:05:50;;;;;;;2.97;1.17;;;10.40;99.90;;;;;;5026607;28;20107;-62
2023/09/01 03:08:20;;;;;;;;;;;10.50;99.90;;;;;;5026496;28;20063;-62
2023/09/01 03:10:46;;;;;;;;;;;10.40;99.90;;;;;;5028264;28;19959;-62
2023/09/01 03:13:11;;;;;;;2.45;1.48;;;10.40;99.90;;;;;;5025806;28;19921;-62
2023/09/01 03:15:37;;;;;;;6.57;1.63;;;10.30;99.90;;;;;;5027366;28;20526;-63
2023/09/01 03:18:03;;;;;;;6.38;1.75;;;10.30;99.90;;;;;;5025852;28;20045;-63
2023/09/01 03:20:29;;;;;;;4.00;1.85;;;10.30;99.90;;;;;;5026533;28;20397;-63
2023/09/01 03:22:56;;;;;;;4.07;1.75;;;10.30;99.90;;;;;;5026251;28;20064;-63
2023/09/01 03:25:21;;;;;;;2.83;1.38;;;10.30;99.90;;;;;;5024703;28;20111;-63
2023/09/01 03:27:47;;;;;;;4.32;1.90;;;10.20;99.90;;;;;;5026938;28;20056;-63
2023/09/01 03:30:13;;;;;;;4.75;1.73;;;10.30;99.90;;;;;;5025190;28;20124;-63
2023/09/01 03:32:39;;;;;;;7.22;2.00;;;10.30;99.90;;;;;;5027063;28;20045;-63
2023/09/01 03:35:05;;;;;;;7.03;1.88;;;10.30;99.90;;;;;;5025640;28;20046;-63
2023/09/01 03:37:31;;;;;;;6.70;1.65;;;10.40;99.90;;;;;;5026795;28;20076;-63
2023/09/01 03:39:57;;;;;;;5.38;1.83;;;10.40;99.90;;;;;;5025327;28;20055;-62
2023/09/01 03:42:23;;;;;;;4.47;1.60;;;10.40;99.90;;;;;;5026303;28;20132;-63
2023/09/01 03:44:49;;;;;;;4.47;2.00;;;10.40;99.90;;;;;;5025256;28;20392;-63
2023/09/01 03:47:14;;;;;;;5.70;2.00;;;10.50;99.90;;;;;;5007795;28;20067;-63
2023/09/01 03:49:40;;;;;;;4.78;2.13;;;10.50;99.90;;;;;;5025256;28;20045;-63
2023/09/01 03:52:06;;;;;;;5.53;1.83;;;10.40;99.90;;;;;;5025465;28;20041;-63
2023/09/01 03:54:32;;;;;;;1.77;1.67;;;10.50;99.90;;;;;;5025725;28;20041;-63
2023/09/01 03:56:58;;;;;;;3.80;1.70;;;10.50;99.90;;;;;;5025409;28;20038;-63
2023/09/01 03:59:24;;;;;;;2.78;1.60;;;10.50;99.90;;;;;;5024471;28;20056;-63
2023/09/01 04:01:50;;;;;;;6.75;1.80;;;10.50;99.90;;;;;;5025560;28;20041;-62
2023/09/01 04:04:18;;;;;;;5.28;1.45;;;10.50;99.90;;;;;;5025296;28;20064;-63
2023/09/01 04:06:44;;;;;;;2.58;1.48;;;10.50;99.90;;;;;;5026362;28;20045;-63
2023/09/01 04:09:10;;;;;;;6.28;1.80;;;10.50;99.90;;;;;;5025141;28;20037;-62
2023/09/01 04:11:36;;;;;;;1.20;1.20;;;10.40;99.90;;;;;;5026380;28;20522;-63
2023/09/01 04:14:03;;;;;;;2.70;1.40;;;10.40;99.90;;;;;;5024935;28;20037;-63
2023/09/01 04:16:28;;;;;;;2.00;1.42;;;10.40;99.90;;;;;;5026263;28;20045;-62
2023/09/01 04:18:55;;;;;;;3.35;1.50;;;10.30;99.90;;;;;;5025443;28;20053;-63
2023/09/01 04:21:21;;;;;;;5.20;1.63;;;10.30;99.90;;;;;;5025744;28;20565;-63
2023/09/01 04:23:48;;;;;;;4.13;1.73;;;10.30;99.90;;;;;;5025972;28;20052;-62
2023/09/01 04:26:14;;;;;;;2.75;1.60;;;10.30;99.90;;;;;;5025372;28;20142;-63
2023/09/01 04:28:40;;;;;;;4.85;1.40;;;10.20;99.90;;;;;;5024893;28;20438;-63
2023/09/01 04:31:35;;;;;;;3.42;1.42;;;10.20;99.90;;;;;;5024891;28;20397;-62
2023/09/01 04:34:01;;;;;;;8.43;1.55;;;10.20;99.90;;;;;;5009398;28;20647;-63
2023/09/01 04:36:26;;;;;;;2.25;1.73;;;10.10;99.90;;;;;;5024811;28;20073;-63
2023/09/01 04:38:52;;;;;;;3.70;1.33;;;10.10;99.90;;;;;;5025916;28;20120;-63
2023/09/01 04:41:18;;;;;;;3.85;1.25;;;10.00;99.90;;;;;;5025906;28;20049;-62
2023/09/01 04:43:44;;;;;;;5.38;1.40;;;10.00;99.90;;;;;;5023389;28;20045;-63
2023/09/01 04:46:09;;;;;;;2.53;1.42;;;10.00;99.90;;;;;;5026319;28;20050;-63
2023/09/01 04:48:36;;;;;;;2.70;2.10;;;9.90;99.90;;;;;;5006394;28;20124;-63
2023/09/01 04:51:02;;;;;;;3.63;1.35;;;9.90;99.90;;;;;;5024574;28;20053;-63
2023/09/01 04:53:31;;;;;;;6.13;1.20;;;9.90;99.90;;;;;;5006550;28;20037;-63
2023/09/01 04:55:58;;;;;;;3.00;1.35;;;9.90;99.90;;;;;;5024691;28;20058;-63
2023/09/01 04:58:23;;;;;;;3.28;1.20;;;9.90;99.90;;;;;;5025343;28;20064;-62
2023/09/01 05:00:54;;;;;;;4.47;1.50;;;9.90;99.90;;;;;;5024833;28;20433;-63
2023/09/01 05:03:20;;;;;;;8.38;1.30;;;9.90;99.90;;;;;;5024797;28;20141;-63
2023/09/01 05:05:47;;;;;;;1.90;1.50;;;9.90;99.90;;;;;;5025406;28;20458;-63
2023/09/01 05:08:13;;;;;;;2.53;1.40;;;9.90;99.90;;;;;;5029893;28;20056;-63
2023/09/01 05:10:38;;;;;;;2.55;1.20;;;9.90;99.90;;;;;;5009404;28;20041;-62
2023/09/01 05:13:04;;;;;;;2.60;1.30;;;9.90;99.90;;;;;;5029519;28;20148;-63
2023/09/01 05:15:30;;;;;;;1.42;1.33;;;9.90;99.90;;;;;;5028290;28;20085;-63
2023/09/01 05:17:56;;;;;;;3.20;1.30;;;9.90;99.90;;;;;;5028492;28;20046;-63
2023/09/01 05:20:22;;;;;;;1.45;1.30;;;9.90;99.90;;;;;;5028907;28;20183;-63
2023/09/01 05:22:48;;;;;;;3.42;1.27;;;9.90;99.90;;;;;;5027330;28;20123;-62
2023/09/01 05:25:14;;;;;;;2.50;1.15;;;9.90;99.90;;;;;;5030236;28;20479;-62
2023/09/01 05:27:40;;;;;;;6.00;1.10;;;9.90;99.90;;;;;;5028298;28;20049;-63
2023/09/01 05:30:06;;;;;;;7.15;1.50;;;9.90;99.90;;;;;;5030013;28;20398;-62
2023/09/01 05:32:33;;;;;;;2.80;1.45;;;9.90;99.90;;;;;;5028272;28;20112;-62
2023/09/01 05:34:59;;;;;;;6.38;1.50;;;10.00;99.90;;;;;;5029278;28;20041;-62
2023/09/01 05:37:25;;;;;;;3.50;1.50;;;10.00;99.90;;;;;;5029620;28;20357;-62
2023/09/01 05:39:51;;;;;;;2.50;1.33;;;9.90;99.90;;;;;;5027882;28;20042;-62
2023/09/01 05:42:17;;;;;;;3.65;1.58;;;10.00;99.90;;;;;;5029713;28;20052;-62
2023/09/01 05:44:42;;;;;;;3.47;1.80;;;10.10;99.90;;;;;;5027700;28;20045;-62
2023/09/01 05:47:08;;;;;;;1.75;1.60;;;10.10;99.90;;;;;;5029989;28;20077;-62
2023/09/01 05:49:34;;;;;;;2.83;1.95;;;10.20;99.90;;;;;;5009985;28;20052;-62
2023/09/01 05:52:01;;;;;;;2.63;1.55;;;10.20;99.90;;;;;;5029010;28;20053;-62
2023/09/01 05:54:27;;;;;;;3.10;1.70;;;10.30;99.90;;;;;;5027344;28;20064;-62
2023/09/01 05:56:53;;;;;;;2.55;1.45;;;10.30;99.90;;;;;;5028291;28;20366;-62
2023/09/01 05:59:19;;;;;;;6.28;1.92;;;10.30;99.90;;;;;;5029346;28;20092;-63
2023/09/01 06:01:46;;;;;;;3.20;1.75;;;10.40;99.90;;;;;;5027288;28;20065;-62
2023/09/01 06:04:12;;;;;;;4.53;1.98;;;10.50;99.90;;;;;;5028702;28;20447;-63
2023/09/01 06:06:38;;;;;;;6.28;1.95;;;10.60;99.90;;;;;;5025522;28;20117;-62
2023/09/01 06:09:08;;;;;;;3.92;1.85;;;10.70;99.90;;;;;;5027887;28;20041;-62
2023/09/01 06:11:35;;;;;;;4.55;1.80;;;10.70;99.90;;;;;;5027429;28;20040;-63
2023/09/01 06:14:01;;;;;;;7.63;2.05;;;10.80;99.90;;;;;;5028654;28;20049;-62
2023/09/01 06:16:27;;;;;;;2.38;1.83;;;10.90;99.90;;;;;;5028165;28;20125;-62
2023/09/01 06:18:54;;;;;;;5.25;1.80;;;10.90;99.90;;;;;;5027599;28;20364;-62
2023/09/01 06:21:20;;;;;;;4.18;2.20;;;11.10;99.90;;;;;;5028797;28;20034;-62
2023/09/01 06:23:47;;;;;;;2.63;1.98;;;11.20;99.90;;;;;;5027046;28;20136;-62
2023/09/01 06:26:17;;;;;;;3.85;1.98;;;11.30;99.90;;;;;;5028910;28;20041;-62
2023/09/01 06:28:46;;;;;;;;;;;11.30;99.90;;;;;;5028001;28;20053;-62
2023/09/01 06:31:13;;;;;;;5.82;1.77;;;11.40;99.90;;;;;;5028771;28;19928;-63
2023/09/01 06:33:43;;;;;;;1.73;1.63;;;11.60;99.90;;;;;;5028212;28;20037;-62
2023/09/01 06:36:10;;;;;;;4.20;2.00;;;11.60;99.90;;;;;;5026279;28;20037;-62
2023/09/01 06:38:37;;;;;;;5.25;2.15;;;11.70;99.90;;;;;;5026640;28;20041;-62
2023/09/01 06:41:03;;;;;;;6.43;2.42;;;11.80;99.90;;;;;;5027057;28;20511;-62
2023/09/01 06:43:31;;;;;;;6.20;2.13;;;12.00;99.90;;;;;;5028514;28;20103;-62
2023/09/01 06:45:58;;;;;;;5.68;1.85;;;12.00;99.90;;;;;;5026704;28;20407;-63
2023/09/01 06:48:24;;;;;;;7.75;2.38;;;12.30;99.90;;;;;;5028123;28;20034;-62
2023/09/01 06:50:50;;;;;;;17.00;2.45;;;12.50;99.90;;;;;;5027314;28;20041;-62
2023/09/01 06:53:15;;;;;;;4.82;2.65;;;12.60;99.90;;;;;;5026267;28;20048;-62
2023/09/01 06:55:41;;;;;;;7.60;2.83;;;12.80;99.90;;;;;;5027741;28;20056;-62
2023/09/01 06:58:07;;;;;;;3.67;2.53;;;13.00;99.90;;;;;;5026912;28;20091;-62
2023/09/01 07:00:33;;;;;;;6.28;2.65;;;13.20;99.90;;;;;;5028206;28;20129;-62
2023/09/01 07:02:59;;;;;;;9.07;2.72;;;13.40;99.90;;;;;;5024915;28;20120;-62
2023/09/01 07:05:25;;;;;;;5.82;2.45;;;13.60;99.90;;;;;;5025530;28;20444;-62
2023/09/01 07:07:52;;;;;;;9.32;2.70;;;13.80;99.90;;;;;;5019591;28;20494;-62
2023/09/01 07:10:18;;;;;;;5.40;2.85;;;14.10;99.90;;;;;;5034108;28;20056;-62
2023/09/01 07:12:44;;;;;;;5.07;2.85;;;14.30;99.90;;;;;;5026809;28;20045;-62
2023/09/01 07:15:10;;;;;;;6.70;2.80;;;14.60;99.90;;;;;;5026427;28;20046;-62
2023/09/01 07:17:36;;;;;;;3.83;2.67;;;14.90;99.90;;;;;;5027032;28;20041;-62
2023/09/01 07:20:03;;;;;;;5.47;2.70;;;15.10;99.90;;;;;;5025591;28;20049;-63
2023/09/01 07:22:29;;;;;;;11.23;3.55;;;15.30;99.90;;;;;;5027323;28;20515;-63
2023/09/01 07:24:54;;;;;;;8.73;2.95;;;15.50;99.90;;;;;;5025720;28;20094;-62
2023/09/01 07:27:20;;;;;;;5.05;2.55;;;15.60;99.90;;;;;;5025107;28;20360;-62
2023/09/01 07:29:48;;;;;;;7.45;2.85;;;15.80;99.90;;;;;;5025892;28;20396;-62
2023/09/01 07:32:15;;;;;;;6.25;2.75;;;16.00;99.90;;;;;;5023135;28;20490;-63
2023/09/01 07:34:41;;;;;;;11.00;3.00;;;16.30;99.90;;;;;;5026247;28;20133;-62
2023/09/01 07:37:07;;;;;;;7.88;3.28;;;16.60;99.90;;;;;;5025608;28;20049;-62
2023/09/01 07:39:32;;;;;;;7.65;3.00;;;16.80;99.90;;;;;;5027002;28;20052;-62
2023/09/01 07:41:58;;;;;;;7.60;2.95;;;17.00;99.90;;;;;;5025537;28;20061;-63
2023/09/01 07:44:24;;;;;;;8.02;2.80;;;17.10;99.90;;;;;;5027156;28;20041;-62
2023/09/01 07:46:50;;;;;;;10.50;2.95;;;17.20;99.90;;;;;;5024998;28;20037;-62
2023/09/01 07:49:16;;;;;;;6.68;3.30;;;17.40;99.90;;;;;;5025020;28;20679;-63
2023/09/01 07:51:43;;;;;;;6.25;3.00;;;17.60;99.90;;;;;;5025432;28;20049;-62
2023/09/01 07:54:08;;;;;;;6.13;2.75;;;17.80;99.90;;;;;;5023998;28;20045;-62
2023/09/01 07:56:35;;;;;;;11.57;2.45;;;18.00;99.90;;;;;;5027048;28;20045;-63
2023/09/01 07:59:01;;;;;;;8.82;2.33;;;18.20;99.90;;;;;;5025523;28;20046;-63
2023/09/01 08:01:28;;;;;;;6.65;2.28;;;18.30;99.90;;;;;;5024184;28;20049;-62
2023/09/01 08:03:54;;;;;;;5.45;2.15;;;18.50;99.90;;;;;;5025097;28;20125;-63
2023/09/01 08:06:20;;;;;;;5.22;1.80;;;18.50;99.90;;;;;;5026349;28;20065;-63
2023/09/01 08:08:46;;;;;;;6.50;1.70;;;18.50;99.90;;;;;;5024222;28;20557;-62
2023/09/01 08:11:11;;;;;;;2.50;1.38;;;18.50;99.90;;;;;;5024871;28;20054;-64
2023/09/01 08:13:37;;;;;;;5.32;1.40;;;18.50;99.90;;;;;;5026490;28;20095;-63
2023/09/01 08:16:03;;;;;;;6.55;1.42;;;18.40;99.90;;;;;;5025019;28;20497;-63
2023/09/01 08:18:28;;;;;;;6.50;1.52;;;18.20;96.70;;;;;;5026839;28;20048;-63
2023/09/01 08:20:54;;;;;;;4.97;1.60;;;18.00;97.50;;;;;;5024270;28;20076;-62
2023/09/01 08:23:21;;;;;;;6.13;1.23;;;17.90;98.30;;;;;;5014540;28;20037;-62
2023/09/01 08:25:48;;;;;;;3.78;1.10;;;17.80;99.90;;;;;;5026246;28;20103;-63
2023/09/01 08:28:14;;;;;;;9.30;1.60;;;17.80;99.90;;;;;;5024315;28;20049;-63
2023/09/01 08:30:39;;;;;;;3.83;1.23;;;17.80;99.90;;;;;;5026827;28;20124;-62
2023/09/01 08:33:05;;;;;;;6.57;1.75;;;17.80;99.90;;;;;;5024723;28;20037;-63
2023/09/01 08:35:31;;;;;;;4.85;1.42;;;17.70;99.90;;;;;;5026491;28;20041;-63
2023/09/01 08:37:57;;;;;;;7.55;1.50;;;17.70;99.90;;;;;;5024556;28;20053;-63
2023/09/01 08:40:23;;;;;;;5.22;1.60;;;17.70;99.90;;;;;;5026298;28;20051;-63
2023/09/01 08:42:50;;;;;;;5.53;1.55;;;17.60;99.90;;;;;;5027685;28;20041;-63
2023/09/01 08:45:17;;;;;;;2.78;1.20;;;17.60;99.90;;;;;;5024958;28;20050;-62
2023/09/01 08:47:48;;;;;;;4.47;1.20;;;17.50;99.90;;;;;;5029959;28;20144;-63
2023/09/01 08:50:16;;;;;;;5.30;1.45;;;17.50;99.90;;;;;;5019912;28;20120;-64
2023/09/01 08:52:46;;;;;;;5.45;1.33;;;17.50;99.90;;;;;;5028948;28;20075;-62
2023/09/01 08:55:18;;;;;;;6.15;1.48;;;17.60;99.90;;;;;;5028425;28;20726;-63
2023/09/01 08:57:47;;;;;;;4.97;1.20;;;17.50;99.90;;;;;;5028754;28;20116;-62
2023/09/01 09:00:14;;;;;;;6.38;1.20;;;17.50;99.90;;;;;;5028663;28;20037;-62
2023/09/01 09:02:41;;;;;;;5.22;1.55;;;17.50;99.90;;;;;;5029038;28;20534;-63
2023/09/01 09:05:20;;;;;;;4.07;1.08;;;17.60;99.90;;;;;;5029109;28;20045;-63
2023/09/01 09:07:58;;;;;;;7.50;1.40;;;17.60;99.90;;;;;;5027330;28;20049;-63
2023/09/01 09:10:41;;;;;;;3.25;1.23;;;17.60;99.90;;;;;;5030275;28;20361;-65
2023/09/01 09:13:26;;;;;;;6.88;1.50;;;17.50;99.90;;;;;;5028711;28;20049;-65
2023/09/01 09:16:03;;;;;;;1.63;1.30;;;17.50;99.90;;;;;;5028172;28;20499;-65
2023/09/01 09:18:29;;;;;;;3.90;1.20;;;17.50;99.90;;;;;;5025367;28;20458;-64
2023/09/01 09:20:55;;;;;;;6.22;1.23;;;17.50;99.90;;;;;;5026817;28;20076;-65
2023/09/01 09:23:21;;;;;;;7.18;1.30;;;17.60;99.90;;;;;;5011266;28;20487;-65
2023/09/01 09:25:49;;;;;;;4.93;1.30;;;17.60;99.90;;;;;;5027379;28;20045;-65
2023/09/01 09:28:18;;;;;;;3.42;1.45;;;17.60;99.90;;;;;;5019559;28;20479;-66
2023/09/01 09:30:51;;;;;;;3.80;1.58;;;17.50;99.90;;;;;;5028653;28;20053;-65
2023/09/01 09:33:26;;;;;;;8.95;1.08;;;17.50;99.90;;;;;;5027502;28;20499;-65
2023/09/01 09:35:52;;;;;;;5.25;1.10;;;17.40;99.90;;;;;;5030258;28;20398;-66
2023/09/01 09:38:18;;;;;;;4.05;1.05;;;17.40;99.90;;;;;;5026170;28;20038;-66
2023/09/01 09:41:02;;;;;;;1.50;0.98;;;17.40;99.80;;;;;;5027753;28;20053;-66
2023/09/01 09:43:30;;;;;;;2.55;1.27;;;17.40;99.90;;;;;;5028088;28;20076;-66
2023/09/01 09:45:56;;;;;;;1.60;1.05;;;17.30;99.90;;;;;;5027790;28;20049;-66
2023/09/01 09:48:22;;;;;;;2.17;1.17;;;17.40;99.90;;;;;;5028756;28;20052;-66
2023/09/01 09:50:51;;;;;;;3.17;0.95;;;17.30;99.90;;;;;;5028530;28;20125;-66
2023/09/01 09:53:20;;;;;;;;;;;17.30;96.50;;;;;;5027899;28;20477;-66
2023/09/01 09:55:49;;;;;;;1.70;0.70;;;17.30;97.30;;;;;;5015915;28;19925;-66
2023/09/01 09:58:17;;;;;;;6.60;0.93;;;17.40;96.40;;;;;;5028923;28;20087;-66
2023/09/01 10:01:02;;;;;;;1.95;0.90;;;17.40;96.90;;;;;;5028070;28;20044;-66
2023/09/01 10:03:31;;;;;;;1.88;0.90;;;17.40;96.40;;;;;;5024384;28;20124;-66
2023/09/01 10:06:04;;;;;;;3.63;1.15;;;17.40;95.10;;;;;;5028396;28;20065;-65
2023/09/01 10:08:32;;;;;;;3.85;1.45;;;17.50;93.70;;;;;;5026343;28;20406;-66
2023/09/01 10:11:02;;;;;;;1.35;1.00;;;17.40;91.20;;;;;;5029014;28;20042;-66
2023/09/01 10:13:28;;;;;;;1.58;0.80;;;17.50;94.10;;;;;;5026029;28;20120;-66
2023/09/01 10:15:55;;;;;;;6.22;1.65;;;17.50;94.70;;;;;;5027716;28;20112;-66
2023/09/01 10:18:21;;;;;;;3.80;1.58;;;17.50;91.80;;;;;;5009057;28;20558;-65
2023/09/01 10:20:47;;;;;;;6.13;1.25;;;17.50;91.30;;;;;;5026617;28;20107;-66
2023/09/01 10:23:13;;;;;;;3.67;1.52;;;17.50;92.20;;;;;;5026983;28;20046;-65
2023/09/01 10:25:39;;;;;;;3.17;1.00;;;17.60;91.90;;;;;;5026599;28;20558;-65
2023/09/01 10:28:13;;;;;;;2.13;0.85;;;17.60;91.10;;;;;;5009995;28;20052;-65
2023/09/01 10:30:44;;;;;;;3.58;1.65;;;17.70;91.30;;;;;;5009468;28;20077;-65
2023/09/01 10:33:15;;;;;;;2.33;0.93;;;17.70;83.30;;;;;;5024691;28;20084;-65
2023/09/01 10:35:46;;;;;;;3.13;0.93;;;17.80;86.80;;;;;;5026430;28;20052;-65
2023/09/01 10:38:34;;;;;;;2.22;1.40;;;17.70;90.00;;;;;;5026366;28;20499;-65
2023/09/01 10:41:00;;;;;;;3.72;0.90;;;17.80;94.40;;;;;;5026944;28;20102;-65
2023/09/01 10:43:37;;;;;;;2.17;1.05;;;17.90;79.50;;;;;;5024940;28;20149;-65
2023/09/01 10:46:12;;;;;;;2.05;0.75;;;17.90;77.50;;;;;;5025389;28;20609;-65
2023/09/01 10:48:52;;;;;;;1.25;0.90;;;18.10;78.60;;;;;;5027039;28;20060;-65
2023/09/01 10:51:33;;;;;;;5.55;1.00;;;18.30;84.50;;;;;;5025051;28;20045;-65
2023/09/01 10:54:00;;;;;;;3.83;0.90;;;18.50;88.00;;;;;;5016479;28;20045;-65
2023/09/01 10:56:31;;;;;;;2.15;0.82;;;18.60;84.40;;;;;;5024977;28;20064;-65
2023/09/01 10:58:58;;;;;;;3.40;0.98;;;18.70;78.50;;;;;;5026957;28;20054;-65
2023/09/01 11:01:31;;;;;;;2.25;0.70;;;18.70;69.80;;;;;;5026144;28;20045;-65
2023/09/01 11:04:16;;;;;;;2.05;0.82;;;18.60;87.00;;;;;;5024601;28;20041;-65
2023/09/01 11:06:58;;;;;;;2.33;0.93;;;18.70;72.60;;;;;;5027365;28;20053;-65
2023/09/01 11:09:32;;;;;;;1.63;1.00;;;18.70;83.70;;;;;;5007808;28;20076;-65
2023/09/01 11:12:02;;;;;;;3.85;1.10;;;18.80;86.40;;;;;;5025652;28;20379;-65
2023/09/01 11:14:28;;;;;;;;;;;18.90;76.60;;;;;;5024631;28;20123;-65
2023/09/01 11:16:54;;;;;;;1.83;1.13;;;19.10;79.00;;;;;;5026779;28;19929;-65
2023/09/01 11:19:20;;;;;;;4.07;1.10;;;19.30;77.40;;;;;;5013041;28;20077;-65
2023/09/01 11:21:49;;;;;;;7.28;2.33;;;19.40;63.70;;;;;;5026770;28;20080;-65
2023/09/01 11:24:20;;;;;;;3.40;1.10;;;19.50;66.90;;;;;;5027462;28;20130;-65
2023/09/01 11:26:48;;;;;;;3.83;1.33;;;19.50;59.10;;;;;;5025635;28;20048;-65
2023/09/01 11:29:14;;;;;;;3.40;1.40;;;19.60;46.90;;;;;;5027113;28;20084;-65
2023/09/01 11:31:42;;;;;;;4.25;1.25;;;19.60;47.30;;;;;;5025094;28;20037;-65
2023/09/01 11:34:08;;;;;;;5.70;1.23;;;19.80;54.10;;;;;;5026841;28;20751;-65
2023/09/01 11:36:49;;;;;;;2.42;0.90;;;19.90;44.60;;;;;;5027091;28;20037;-65
2023/09/01 11:39:15;;;;;;;6.60;1.20;;;19.90;43.90;;;;;;5025887;28;20049;-65
2023/09/01 11:41:42;;;;;;;3.50;1.08;;;19.90;53.90;;;;;;5026955;28;20076;-65
2023/09/01 11:44:08;;;;;;;8.43;1.02;;;19.90;41.90;;;;;;5024168;28;20103;-65
2023/09/01 11:46:35;;;;;;;1.42;0.90;;;20.00;46.40;;;;;;5026542;28;20052;-65
2023/09/01 11:49:03;;;;;;;3.22;1.58;;;19.90;35.20;;;;;;5024592;28;20495;-64
2023/09/01 11:51:33;;;;;;;3.50;1.02;;;19.80;10.90;;;;;;5026024;28;20076;-65
2023/09/01 11:53:59;;;;;;;6.60;0.95;;;19.80;18.80;;;;;;5025791;28;20056;-67
2023/09/01 11:56:25;;;;;;;1.42;0.70;;;19.70;24.90;;;;;;5025404;28;20041;-66
2023/09/01 11:58:52;;;;;;;2.60;1.20;;;19.70;37.80;;;;;;5027558;28;20454;-66
2023/09/01 12:01:21;;;;;;;1.90;0.80;;;19.80;31.20;;;;;;5025049;28;20111;-67
2023/09/01 12:03:52;;;;;;;0.68;0.68;;;19.80;29.80;;;;;;5009360;28;20298;-67
2023/09/01 12:06:22;;;;;;;1.48;0.85;;;19.80;23.10;;;;;;5025126;28;20119;-67
2023/09/01 12:08:53;;;;;;;9.18;1.25;;;19.90;30.60;;;;;;5016870;28;20038;-66
2023/09/01 12:11:19;;;;;;;1.70;0.60;;;19.90;29.00;;;;;;5014356;28;20080;-67
2023/09/01 12:13:46;;;;;;;1.60;0.63;;;20.00;13.60;;;;;;5023042;28;20043;-67
2023/09/01 12:16:24;;;;;;;1.58;0.73;;;19.90;10.80;;;;;;5027994;28;20052;-67
2023/09/01 12:18:55;;;;;;;3.13;0.60;;;19.90;19.60;;;;;;5029274;28;20048;-67
2023/09/01 12:21:21;;;;;;;1.17;0.70;;;20.00;26.60;;;;;;5030759;28;20491;-67
2023/09/01 12:23:47;;;;;;;2.15;0.85;;;20.00;18.10;;;;;;5029735;28;20491;-67
2023/09/01 12:26:14;;;;;;;0.77;0.68;;;20.00;1.50;;;;;;5028618;28;20052;-67
2023/09/01 12:28:42;;;;;;;1.77;0.75;;;20.00;18.70;;;;;;5028991;28;20045;-67
2023/09/01 12:31:09;;;;;;;0.95;0.70;;;20.00;4.40;;;;;;5021008;28;20439;-67
2023/09/01 12:33:35;;;;;;;3.58;0.70;;;20.00;8.20;;;;;;5030141;28;20056;-67
2023/09/01 12:36:02;;;;;;;3.10;0.77;;;19.90;5.60;;;;;;5027279;28;20070;-66
2023/09/01 12:38:28;;;;;;;1.02;0.70;;;19.80;1.00;;;;;;5028825;28;20041;-67
2023/09/01 12:40:55;;;;;;;1.17;0.50;;;19.60;4.90;;;;;;5007839;28;20104;-66
2023/09/01 12:43:21;;;;;;;6.25;0.93;;;19.50;16.30;;;;;;5028238;28;20041;-67
2023/09/01 12:45:47;;;;;;;2.72;0.80;;;19.40;16.40;;;;;;5029321;28;20492;-66
2023/09/01 12:48:16;;;;;;;1.58;0.60;;;19.20;21.20;;;;;;5029526;28;20116;-67
2023/09/01 12:50:46;;;;;;;0.82;0.60;;;19.20;18.10;;;;;;5029992;28;20446;-67